Time;durP1;ratioP1;P1;durP2;ratioP2;P2;SDS_P1;SDS_P2;PMS_P1;PMS_P2;Temp;Humidity;BMP_temperature;BMP_pressure;BME280_temperature;BME280_humidity;BME280_pressure;Samples;Min_cycle;Max_cycle;Signal;HPM_P1;HPM_P2
2022/03/04 00:01:53;;;;;;;31.08;15.55;;;;;;;0.33;56.38;99242.69;5161622;28;20690;-66
2022/03/04 00:04:43;;;;;;;34.03;15.90;;;;;;;0.45;56.45;99244.72;5160913;28;20120;-67
2022/03/04 00:07:33;;;;;;;34.88;15.07;;;;;;;0.34;55.59;99240.03;5161184;28;20061;-66
2022/03/04 00:10:23;;;;;;;36.42;16.02;;;;;;;0.26;56.43;99243.91;5161780;28;20054;-67
2022/03/04 00:13:13;;;;;;;31.52;15.43;;;;;;;0.09;56.53;99226.47;5161671;28;20597;-67
2022/03/04 00:16:03;;;;;;;30.42;15.38;;;;;;;0.15;56.71;99252.25;5159514;28;20105;-65
2022/03/04 00:19:06;;;;;;;35.03;15.02;;;;;;;0.12;56.03;99252.41;5161636;28;20050;-66
2022/03/04 00:21:56;;;;;;;38.63;16.33;;;;;;;0.05;56.67;99240.56;5141820;28;20059;-67
2022/03/04 00:24:47;;;;;;;31.63;15.13;;;;;;;-0.06;56.25;99244.53;5141617;28;20073;-66
2022/03/04 00:27:38;;;;;;;33.53;15.60;;;;;;;0.05;56.32;99253.59;5142459;28;20136;-66
2022/03/04 00:30:28;;;;;;;31.77;15.75;;;;;;;0.09;56.55;99258.59;5129740;28;20058;-66
2022/03/04 00:33:18;;;;;;;32.88;15.85;;;;;;;0.20;56.13;99256.34;5154690;28;20188;-65
2022/03/04 00:36:08;;;;;;;34.22;16.55;;;;;;;0.05;56.10;99246.63;5162941;28;20184;-66
2022/03/04 00:38:58;;;;;;;34.90;17.38;;;;;;;0.10;56.37;99262.03;5162985;28;20057;-66
2022/03/04 00:41:49;;;;;;;34.05;16.67;;;;;;;0.12;56.75;99260.22;5163213;28;20054;-66
2022/03/04 00:44:39;;;;;;;35.00;16.02;;;;;;;0.14;56.65;99271.44;5163422;28;20090;-66
2022/03/04 00:47:30;;;;;;;37.33;17.92;;;;;;;0.06;56.20;99271.78;5162249;28;20105;-66
2022/03/04 00:50:20;;;;;;;39.75;17.25;;;;;;;0.03;56.53;99278.88;5160621;28;20058;-67
2022/03/04 00:53:10;;;;;;;40.58;16.80;;;;;;;-0.05;56.84;99261.00;5163290;28;20476;-66
2022/03/04 00:56:00;;;;;;;31.80;16.25;;;;;;;-0.02;58.00;99264.31;5163424;28;20065;-67
2022/03/04 00:58:51;;;;;;;37.22;16.55;;;;;;;0.06;56.74;99271.78;5163366;28;20200;-66
2022/03/04 01:01:41;;;;;;;35.22;17.25;;;;;;;-0.06;57.15;99275.81;5163262;28;20659;-68
2022/03/04 01:04:32;;;;;;;38.67;16.67;;;;;;;-0.08;57.21;99272.41;5162518;28;20046;-68
2022/03/04 01:07:21;;;;;;;39.38;16.13;;;;;;;-0.21;57.15;99265.22;5159309;28;20061;-68
2022/03/04 01:10:11;;;;;;;36.25;17.48;;;;;;;0.01;57.27;99275.53;5163343;28;20800;-68
2022/03/04 01:13:02;;;;;;;36.65;17.85;;;;;;;-0.05;57.48;99274.03;5163264;28;20050;-68
2022/03/04 01:15:54;;;;;;;34.95;16.60;;;;;;;-0.20;57.28;99274.72;5161889;28;20085;-68
2022/03/04 01:18:45;;;;;;;36.83;17.00;;;;;;;-0.35;56.77;99271.06;5162214;28;20062;-68
2022/03/04 01:21:36;;;;;;;39.55;15.90;;;;;;;-0.41;56.66;99271.34;5159260;28;20057;-69
2022/03/04 01:24:26;;;;;;;36.25;17.05;;;;;;;-0.32;57.43;99270.94;5158346;28;20432;-68
2022/03/04 01:27:16;;;;;;;39.10;17.23;;;;;;;-0.12;57.16;99272.63;5162945;28;20065;-67
2022/03/04 01:30:08;;;;;;;37.10;17.85;;;;;;;-0.43;57.70;99268.81;5163308;28;20192;-69
2022/03/04 01:32:57;;;;;;;39.50;17.50;;;;;;;-0.43;58.30;99262.72;5163050;28;20155;-69
2022/03/04 01:35:47;;;;;;;35.90;16.65;;;;;;;-0.43;57.65;99270.53;5150540;28;20042;-69
2022/03/04 01:38:38;;;;;;;40.67;16.88;;;;;;;-0.76;58.18;99256.34;5160225;28;20057;-69
2022/03/04 01:41:29;;;;;;;41.58;17.40;;;;;;;-0.60;58.45;99264.31;5154409;28;20054;-69
2022/03/04 01:44:19;;;;;;;37.63;17.05;;;;;;;-0.64;59.12;99261.94;5172751;28;20638;-69
2022/03/04 01:47:09;;;;;;;39.65;18.05;;;;;;;-0.39;58.45;99264.31;5161285;28;20537;-68
2022/03/04 01:50:00;;;;;;;43.13;17.92;;;;;;;-0.45;58.23;99267.19;5161915;28;20513;-68
2022/03/04 01:52:51;;;;;;;38.03;18.02;;;;;;;-0.50;58.11;99250.00;5157655;28;20058;-68
2022/03/04 01:55:41;;;;;;;38.45;18.05;;;;;;;-0.63;58.52;99256.66;5160604;28;20054;-68
2022/03/04 01:58:32;;;;;;;39.85;17.48;;;;;;;-0.87;58.63;99231.69;5162369;28;20204;-68
2022/03/04 02:01:23;;;;;;;39.35;17.05;;;;;;;-0.88;58.88;99253.41;5152836;28;20172;-69
2022/03/04 02:04:14;;;;;;;43.00;17.67;;;;;;;-0.84;58.48;99248.00;5171605;28;20555;-68
2022/03/04 02:07:04;;;;;;;35.92;17.25;;;;;;;-0.91;57.69;99249.19;5162568;28;20050;-67
2022/03/04 02:09:54;;;;;;;40.65;18.38;;;;;;;-0.86;58.75;99248.97;5162408;28;20050;-67
2022/03/04 02:12:44;;;;;;;41.50;17.85;;;;;;;-0.80;58.02;99246.97;5170813;28;20061;-67
2022/03/04 02:15:34;;;;;;;42.45;17.77;;;;;;;-0.91;58.72;99241.38;5176952;28;20058;-67
2022/03/04 02:18:24;;;;;;;38.85;17.60;;;;;;;-0.86;59.19;99241.16;5170019;28;20062;-67
2022/03/04 02:21:14;;;;;;;42.65;19.58;;;;;;;-0.77;58.70;99232.97;5172922;28;20054;-67
2022/03/04 02:24:05;;;;;;;37.67;18.15;;;;;;;-0.76;59.24;99245.94;5177428;28;20045;-67
2022/03/04 02:26:58;;;;;;;39.17;18.60;;;;;;;-0.78;59.28;99239.09;5162715;28;20094;-67
2022/03/04 02:29:48;;;;;;;38.27;18.37;;;;;;;-0.93;59.23;99237.16;5166792;28;20054;-67
2022/03/04 02:32:38;;;;;;;44.45;19.25;;;;;;;-0.98;59.20;99238.19;5167747;28;20389;-67
2022/03/04 02:35:30;;;;;;;45.28;18.92;;;;;;;-1.10;59.20;99224.84;5166944;28;20120;-67
2022/03/04 02:38:20;;;;;;;43.58;18.48;;;;;;;-1.03;58.72;99240.13;5169988;28;20360;-67
2022/03/04 02:41:10;;;;;;;38.45;18.02;;;;;;;-1.16;59.00;99218.13;5163789;28;20132;-66
2022/03/04 02:44:08;;;;;;;46.10;19.13;;;;;;;-0.95;59.22;99232.84;5169485;28;20101;-67
2022/03/04 02:46:59;;;;;;;48.20;19.45;;;;;;;-0.91;59.19;99232.72;5166603;28;20054;-66
2022/03/04 02:49:49;;;;;;;40.75;18.55;;;;;;;-1.10;59.23;99238.69;5172290;28;20160;-67
2022/03/04 02:52:40;;;;;;;44.28;19.92;;;;;;;-1.20;59.52;99243.44;5175692;28;20076;-66
2022/03/04 02:55:30;;;;;;;43.45;18.25;;;;;;;-1.21;59.39;99243.53;5174282;28;20085;-67
2022/03/04 02:58:20;;;;;;;41.25;19.10;;;;;;;-1.29;59.05;99248.19;5161513;28;20058;-67
2022/03/04 03:01:10;;;;;;;45.78;19.05;;;;;;;-1.35;58.97;99248.47;5167325;28;20508;-66
2022/03/04 03:04:01;;;;;;;40.55;19.20;;;;;;;-1.37;59.74;99229.47;5168967;28;20521;-67
2022/03/04 03:06:52;;;;;;;47.63;19.10;;;;;;;-1.34;60.38;99240.59;5161568;28;20098;-66
2022/03/04 03:09:42;;;;;;;40.75;18.58;;;;;;;-1.21;59.45;99241.75;5169463;28;20539;-67
2022/03/04 03:12:32;;;;;;;44.25;19.48;;;;;;;-1.22;60.43;99249.66;5161352;28;20050;-67
2022/03/04 03:15:23;;;;;;;45.40;18.77;;;;;;;-1.17;59.89;99250.28;5157954;28;20042;-67
2022/03/04 03:18:12;;;;;;;42.30;19.48;;;;;;;-1.27;59.99;99252.41;5161082;28;20563;-67
2022/03/04 03:21:03;;;;;;;42.08;18.40;;;;;;;-1.44;59.66;99242.72;5169753;28;20433;-66
2022/03/04 03:23:53;;;;;;;43.58;18.40;;;;;;;-1.61;60.43;99221.75;5169819;28;20550;-66
2022/03/04 03:26:43;;;;;;;47.58;19.05;;;;;;;-1.43;60.20;99244.38;5162428;28;20056;-66
2022/03/04 03:29:33;;;;;;;41.00;18.55;;;;;;;-1.52;60.18;99225.75;5168303;28;20062;-66
2022/03/04 03:32:23;;;;;;;48.60;19.20;;;;;;;-1.25;59.95;99250.63;5160849;28;20057;-67
2022/03/04 03:35:13;;;;;;;40.00;19.02;;;;;;;-1.41;59.89;99228.75;5165110;28;20049;-66
2022/03/04 03:38:03;;;;;;;40.65;19.55;;;;;;;-1.18;60.01;99246.00;5170562;28;20045;-66
2022/03/04 03:40:54;;;;;;;43.28;19.25;;;;;;;-1.21;59.36;99251.31;5174021;28;20042;-66
2022/03/04 03:44:02;;;;;;;51.95;18.17;;;;;;;-1.35;59.70;99254.50;5166315;28;20098;-66
2022/03/04 03:46:53;;;;;;;46.35;20.63;;;;;;;-1.42;60.44;99260.88;5146412;28;20188;-66
2022/03/04 03:49:43;;;;;;;46.25;19.10;;;;;;;-1.10;59.21;99248.28;5164523;28;20125;-66
2022/03/04 03:52:33;;;;;;;44.25;20.08;;;;;;;-1.00;58.94;99260.81;5167418;28;20118;-69
2022/03/04 03:55:28;;;;;;;46.42;18.90;;;;;;;-1.10;59.00;99259.53;5164818;28;20042;-68
2022/03/04 03:58:18;;;;;;;45.55;20.50;;;;;;;-0.96;58.69;99258.94;5173849;28;20211;-68
2022/03/04 04:01:09;;;;;;;42.75;18.52;;;;;;;-1.10;58.96;99259.53;5175162;28;20052;-67
2022/03/04 04:03:59;;;;;;;46.40;20.70;;;;;;;-1.11;59.06;99250.03;5156145;28;20057;-67
2022/03/04 04:06:49;;;;;;;45.15;19.45;;;;;;;-1.12;58.25;99250.94;5168600;28;20051;-68
2022/03/04 04:09:40;;;;;;;43.15;19.30;;;;;;;-1.57;59.51;99259.72;5142525;28;20061;-67
2022/03/04 04:12:30;;;;;;;46.03;20.13;;;;;;;-1.57;60.53;99271.88;5167654;28;20128;-67
2022/03/04 04:15:20;;;;;;;41.92;18.65;;;;;;;-1.62;60.14;99276.41;5172684;28;20049;-67
2022/03/04 04:18:10;;;;;;;37.17;18.67;;;;;;;-1.81;58.88;99258.94;5169048;28;20054;-67
2022/03/04 04:21:00;;;;;;;42.92;19.25;;;;;;;-1.76;59.55;99269.16;5155494;28;20133;-67
2022/03/04 04:23:54;;;;;;;44.38;20.15;;;;;;;-1.67;60.55;99284.41;5177477;28;20065;-66
2022/03/04 04:26:46;;;;;;;39.78;18.63;;;;;;;-1.66;60.62;99279.16;5168025;28;20046;-67
2022/03/04 04:29:36;;;;;;;42.70;19.48;;;;;;;-1.74;60.48;99275.16;5144132;28;20051;-67
2022/03/04 04:32:26;;;;;;;48.63;19.83;;;;;;;-1.60;60.33;99280.63;5165674;28;20417;-66
2022/03/04 04:35:16;;;;;;;50.30;20.52;;;;;;;-1.78;60.60;99276.19;5159529;28;20058;-66
2022/03/04 04:38:06;;;;;;;46.78;19.95;;;;;;;-1.88;60.21;99280.88;5157461;28;20057;-67
2022/03/04 04:40:56;;;;;;;44.38;18.90;;;;;;;-2.01;60.20;99264.06;5168310;28;20056;-67
2022/03/04 04:43:46;;;;;;;46.42;18.98;;;;;;;-1.91;60.19;99283.59;5165300;28;20054;-66
2022/03/04 04:46:37;;;;;;;43.35;19.52;;;;;;;-2.09;61.22;99266.94;5166863;28;20046;-67
2022/03/04 04:49:29;;;;;;;46.47;20.10;;;;;;;-1.83;60.97;99278.09;5156407;28;20061;-67
2022/03/04 04:52:19;;;;;;;47.53;19.48;;;;;;;-2.07;60.30;99274.69;5171687;28;20516;-67
2022/03/04 04:55:09;;;;;;;40.40;18.17;;;;;;;-2.10;60.48;99291.22;5157812;28;20051;-66
2022/03/04 04:57:59;;;;;;;42.30;19.95;;;;;;;-1.75;60.74;99289.06;5170295;28;20058;-67
2022/03/04 05:00:53;;;;;;;46.20;19.08;;;;;;;-1.97;59.87;99289.03;5172168;28;20054;-67
2022/03/04 05:03:44;;;;;;;42.00;18.67;;;;;;;-2.13;59.81;99297.38;5174977;28;20053;-66
2022/03/04 05:06:34;;;;;;;46.22;20.42;;;;;;;-1.84;60.02;99300.66;5164110;28;20055;-68
2022/03/04 05:09:24;;;;;;;42.95;19.52;;;;;;;-1.90;60.88;99306.06;5157363;28;20057;-67
2022/03/04 05:12:15;;;;;;;51.17;19.92;;;;;;;-2.13;61.02;99301.75;5162601;28;20117;-66
2022/03/04 05:15:07;;;;;;;46.67;20.38;;;;;;;-2.16;61.33;99315.69;5164551;28;20185;-65
2022/03/04 05:17:57;;;;;;;54.35;20.77;;;;;;;-2.18;61.70;99299.31;5176675;28;20061;-67
2022/03/04 05:20:47;;;;;;;46.35;20.13;;;;;;;-2.25;61.17;99297.84;5170560;28;20421;-67
2022/03/04 05:26:46;;;;;;;44.60;19.58;;;;;;;-2.11;60.88;99319.88;5176195;28;20204;-67
2022/03/04 05:29:36;;;;;;;40.05;19.23;;;;;;;-2.20;61.64;99310.66;5171443;28;20057;-67
2022/03/04 05:32:26;;;;;;;41.58;18.48;;;;;;;-2.36;61.53;99315.56;5161228;28;20065;-66
2022/03/04 05:35:16;;;;;;;54.22;19.73;;;;;;;-2.49;61.71;99296.13;5159925;28;20053;-67
2022/03/04 05:38:06;;;;;;;53.58;21.58;;;;;;;-2.25;61.86;99322.97;5169423;28;20069;-67
2022/03/04 05:40:56;;;;;;;46.13;20.65;;;;;;;-2.08;61.55;99325.81;5176247;28;20137;-67
2022/03/04 05:43:48;;;;;;;50.00;20.77;;;;;;;-2.27;61.71;99329.97;5174022;28;20077;-67
2022/03/04 05:46:38;;;;;;;48.28;20.83;;;;;;;-2.28;61.68;99312.72;5183352;23;20107;-84
2022/03/04 05:49:28;;;;;;;46.38;20.90;;;;;;;-2.19;61.88;99320.13;5201194;28;20055;-84
2022/03/04 05:52:18;;;;;;;50.17;20.80;;;;;;;-2.16;61.20;99333.03;5209005;28;20051;-83
2022/03/04 05:55:09;;;;;;;44.80;19.98;;;;;;;-2.26;61.73;99314.31;5225477;28;20507;-83
2022/03/04 05:57:59;;;;;;;51.95;20.65;;;;;;;-2.16;61.91;99317.44;5196498;28;20068;-84
2022/03/04 06:00:49;;;;;;;44.17;20.55;;;;;;;-2.32;62.50;99314.53;5200926;28;20073;-83
2022/03/04 06:03:39;;;;;;;41.97;19.75;;;;;;;-2.51;61.78;99316.97;5216549;22;20527;-68
2022/03/04 06:06:29;;;;;;;48.53;22.95;;;;;;;-2.33;62.56;99336.22;5203054;28;20651;-69
2022/03/04 06:09:21;;;;;;;46.42;20.23;;;;;;;-2.43;61.84;99330.50;5203776;28;20057;-68
2022/03/04 06:12:11;;;;;;;45.17;21.30;;;;;;;-2.29;62.10;99332.63;5204086;28;20049;-68
2022/03/04 06:15:02;;;;;;;51.83;21.88;;;;;;;-2.18;61.38;99329.66;5204448;28;20458;-68
2022/03/04 06:17:52;;;;;;;54.72;23.13;;;;;;;-2.29;61.68;99339.56;5202911;28;20139;-68
2022/03/04 06:20:43;;;;;;;52.33;22.42;;;;;;;-2.28;61.82;99333.50;5193481;28;20064;-68
2022/03/04 06:23:33;;;;;;;55.88;23.05;;;;;;;-2.25;62.10;99343.75;5204767;28;20126;-68
2022/03/04 06:26:23;;;;;;;50.55;21.13;;;;;;;-2.19;62.22;99346.13;5216060;28;20530;-68
2022/03/04 06:29:13;;;;;;;52.60;22.95;;;;;;;-2.50;62.06;99303.06;5204588;28;20649;-68
2022/03/04 06:32:09;;;;;;;46.08;21.15;;;;;;;-2.27;61.86;99345.56;5202920;28;20053;-68
2022/03/04 06:34:59;;;;;;;49.17;21.48;;;;;;;-2.22;62.02;99349.69;5199128;28;20586;-68
2022/03/04 06:37:49;;;;;;;53.65;22.17;;;;;;;-2.03;62.89;99359.41;5216486;28;20134;-69
2022/03/04 06:40:40;;;;;;;50.42;21.17;;;;;;;-2.00;63.55;99357.53;5203967;28;20053;-69
2022/03/04 06:43:32;;;;;;;53.80;21.83;;;;;;;-2.09;63.22;99346.63;5203938;28;20087;-69
2022/03/04 06:46:22;;;;;;;52.28;21.95;;;;;;;-1.99;63.59;99372.22;5203256;28;20045;-68
2022/03/04 06:49:12;;;;;;;53.55;23.02;;;;;;;-1.89;63.93;99359.72;5201502;28;20507;-68
2022/03/04 06:52:03;;;;;;;50.33;22.05;;;;;;;-1.56;62.44;99374.97;5203608;28;20415;-68
2022/03/04 06:54:53;;;;;;;49.75;21.33;;;;;;;-1.36;61.46;99366.41;5203378;28;20653;-69
2022/03/04 06:57:43;;;;;;;56.72;23.88;;;;;;;-0.60;61.98;99391.09;5203534;28;20060;-68
2022/03/04 07:00:34;;;;;;;52.85;22.83;;;;;;;0.19;59.25;99390.22;5202390;28;20183;-69
2022/03/04 07:03:24;;;;;;;57.65;23.10;;;;;;;0.71;58.67;99402.66;5203106;28;20064;-69
2022/03/04 07:06:19;;;;;;;52.00;21.73;;;;;;;1.09;57.29;99403.47;5203000;28;20183;-69
2022/03/04 07:09:10;;;;;;;51.63;22.58;;;;;;;1.12;56.60;99398.06;5201549;28;20068;-69
2022/03/04 07:12:00;;;;;;;53.70;23.50;;;;;;;1.50;56.23;99397.97;5203222;28;20056;-68
2022/03/04 07:14:51;;;;;;;59.00;24.48;;;;;;;1.69;56.01;99403.09;5216127;28;20076;-68
2022/03/04 07:17:41;;;;;;;56.53;23.65;;;;;;;1.78;56.35;99384.31;5201773;28;20123;-69
2022/03/04 07:20:31;;;;;;;54.05;24.25;;;;;;;1.98;55.96;99409.44;5202946;28;20076;-68
2022/03/04 07:23:23;;;;;;;50.67;24.42;;;;;;;1.78;55.82;99397.38;5206904;28;20116;-69
2022/03/04 07:26:13;;;;;;;50.05;23.88;;;;;;;1.79;57.35;99404.31;5206401;28;20069;-69
2022/03/04 07:29:03;;;;;;;55.35;23.20;;;;;;;2.41;54.23;99401.94;5206089;28;20053;-69
2022/03/04 07:31:54;;;;;;;49.95;23.45;;;;;;;2.90;53.80;99408.91;5210127;28;20045;-68
2022/03/04 07:34:45;;;;;;;51.50;22.77;;;;;;;3.26;52.39;99419.91;5210575;28;20438;-68
2022/03/04 07:37:36;;;;;;;50.70;22.95;;;;;;;3.71;51.01;99412.13;5209242;28;20407;-69
2022/03/04 07:40:27;;;;;;;48.65;23.02;;;;;;;3.40;52.09;99405.19;5209253;28;20053;-69
2022/03/04 07:43:17;;;;;;;45.20;22.30;;;;;;;3.56;52.13;99410.38;5208956;28;20255;-68
2022/03/04 07:46:08;;;;;;;48.55;23.92;;;;;;;3.90;50.13;99410.06;5207418;28;20045;-70
2022/03/04 07:48:58;;;;;;;44.78;23.40;;;;;;;4.40;48.74;99390.44;5210125;28;20056;-68
2022/03/04 07:51:48;;;;;;;48.72;22.77;;;;;;;4.27;49.39;99383.38;5210475;28;20052;-68
2022/03/04 07:54:40;;;;;;;57.15;25.35;;;;;;;4.59;49.58;99408.50;5210207;28;20049;-69
2022/03/04 07:57:31;;;;;;;63.97;27.13;;;;;;;5.01;49.57;99395.38;5202037;28;20060;-69
2022/03/04 08:00:24;;;;;;;51.97;24.88;;;;;;;4.37;51.11;99400.25;5202288;28;20519;-69
2022/03/04 08:03:15;;;;;;;54.38;25.00;;;;;;;5.43;49.44;99407.50;5202156;28;20136;-69
2022/03/04 08:06:05;;;;;;;56.78;24.38;;;;;;;4.84;49.92;99409.59;5202115;28;20518;-68
2022/03/04 08:08:55;;;;;;;52.65;23.92;;;;;;;5.81;47.76;99409.34;5215794;28;20482;-69
2022/03/04 08:11:47;;;;;;;51.13;25.45;;;;;;;5.07;49.40;99416.84;5215192;28;20064;-69
2022/03/04 08:14:38;;;;;;;58.15;26.52;;;;;;;6.18;47.53;99404.25;5201155;28;20060;-69
2022/03/04 08:17:30;;;;;;;56.78;25.98;;;;;;;7.42;44.30;99419.13;5201520;28;20058;-68
2022/03/04 08:20:21;;;;;;;59.08;26.20;;;;;;;7.11;43.94;99413.41;5220149;28;20443;-68
2022/03/04 08:23:13;;;;;;;46.72;23.48;;;;;;;8.20;42.24;99418.47;5208577;28;20135;-68
2022/03/04 08:26:04;;;;;;;48.58;24.88;;;;;;;8.39;41.78;99412.63;5203047;28;20049;-67
2022/03/04 08:28:54;;;;;;;54.55;24.77;;;;;;;8.71;40.52;99425.97;5215354;28;20053;-67
2022/03/04 08:31:44;;;;;;;50.70;25.25;;;;;;;7.88;40.76;99410.34;5196106;28;20051;-67
2022/03/04 08:34:35;;;;;;;51.47;24.50;;;;;;;7.11;42.73;99423.97;5203421;28;20143;-67
2022/03/04 08:37:25;;;;;;;55.28;25.15;;;;;;;7.39;42.29;99427.25;5195154;28;20060;-68
2022/03/04 08:40:16;;;;;;;55.88;24.90;;;;;;;7.50;42.08;99406.19;5206994;28;20534;-66
2022/03/04 08:43:06;;;;;;;50.67;24.45;;;;;;;8.98;41.11;99430.03;5223582;28;20060;-66
2022/03/04 08:45:56;;;;;;;49.63;24.65;;;;;;;9.14;38.31;99427.84;5212989;28;20059;-67
2022/03/04 08:48:46;;;;;;;51.03;25.02;;;;;;;8.80;40.21;99425.22;5204325;28;20053;-68
2022/03/04 08:51:37;;;;;;;48.53;24.38;;;;;;;9.70;39.11;99426.78;5205720;28;20056;-68
2022/03/04 08:54:27;;;;;;;49.88;25.52;;;;;;;10.40;38.41;99427.94;5222322;28;20140;-67
2022/03/04 08:57:17;;;;;;;49.00;24.75;;;;;;;9.31;40.64;99427.28;5205707;28;20049;-67
2022/03/04 09:00:09;;;;;;;48.97;25.02;;;;;;;9.42;37.71;99434.34;5201984;28;20123;-68
2022/03/04 09:02:59;;;;;;;47.22;25.20;;;;;;;10.34;36.44;99426.69;5199144;28;20511;-68
2022/03/04 09:05:50;;;;;;;45.15;23.98;;;;;;;10.39;38.59;99431.56;5210461;28;20064;-67
2022/03/04 09:08:40;;;;;;;45.55;25.27;;;;;;;10.80;36.43;99404.13;5211078;28;20064;-67
2022/03/04 09:11:30;;;;;;;51.13;25.67;;;;;;;10.31;35.85;99427.78;5198355;28;20498;-67
2022/03/04 09:14:23;;;;;;;54.85;26.17;;;;;;;10.82;35.54;99418.06;5209089;28;20112;-67
2022/03/04 09:17:13;;;;;;;48.92;26.80;;;;;;;10.93;35.92;99407.38;5204028;28;20602;-67
2022/03/04 09:20:04;;;;;;;54.83;26.55;;;;;;;11.66;35.61;99415.81;5202088;28;20060;-67
2022/03/04 09:22:56;;;;;;;48.75;25.23;;;;;;;12.12;34.15;99410.75;5207481;28;20610;-67
2022/03/04 09:25:46;;;;;;;46.30;24.90;;;;;;;11.40;33.50;99402.25;5206166;28;20047;-67
2022/03/04 09:28:37;;;;;;;46.08;24.15;;;;;;;11.75;33.90;99384.91;5221177;28;20052;-68
2022/03/04 09:31:31;;;;;;;;;;;;;;;12.44;33.52;99407.72;5204041;28;20053;-67
2022/03/04 09:34:21;;;;;;;50.05;25.45;;;;;;;11.99;32.01;99411.06;5212616;28;19920;-67
2022/03/04 09:37:11;;;;;;;49.90;24.95;;;;;;;12.50;32.20;99407.13;5207959;28;20051;-67
2022/03/04 09:40:04;;;;;;;47.65;24.52;;;;;;;12.81;32.96;99405.03;5200658;28;20053;-67
2022/03/04 09:42:54;;;;;;;45.92;24.80;;;;;;;11.82;32.91;99403.78;5215796;28;20052;-67
2022/03/04 09:45:46;;;;;;;47.97;24.38;;;;;;;12.78;32.59;99401.81;5200575;28;20052;-67
2022/03/04 09:48:40;;;;;;;46.42;26.23;;;;;;;12.06;33.28;99408.69;5208548;28;20048;-69
2022/03/04 09:51:30;;;;;;;53.00;26.67;;;;;;;11.83;31.39;99389.53;5198026;28;20076;-68
2022/03/04 09:54:21;;;;;;;48.15;26.20;;;;;;;12.27;32.78;99417.28;5210825;28;20447;-66
2022/03/04 09:57:10;;;;;;;48.25;24.77;;;;;;;12.73;31.67;99412.09;5202731;28;20050;-68
2022/03/04 10:00:04;;;;;;;46.92;25.98;;;;;;;12.32;33.48;99393.78;5207291;28;20060;-69
2022/03/04 10:03:01;;;;;;;43.28;23.40;;;;;;;12.52;31.30;99407.84;5202304;28;20071;-69
2022/03/04 10:05:53;;;;;;;47.97;24.88;;;;;;;13.63;31.43;99406.75;5201237;28;20523;-68
2022/03/04 10:08:46;;;;;;;44.72;25.27;;;;;;;13.16;31.88;99406.94;5201104;28;20526;-69
2022/03/04 10:11:39;;;;;;;43.70;25.65;;;;;;;12.36;31.58;99402.31;5198335;28;20071;-69
2022/03/04 10:14:29;;;;;;;44.97;24.47;;;;;;;10.14;34.15;99401.00;5204984;28;20045;-68
2022/03/04 10:17:20;;;;;;;47.00;25.95;;;;;;;11.44;33.71;99397.50;5200851;28;20444;-68
2022/03/04 10:20:12;;;;;;;49.97;26.88;;;;;;;11.67;36.65;99412.19;5203339;28;20054;-70
2022/03/04 10:23:14;;;;;;;44.60;26.20;;;;;;;12.68;32.34;99407.19;5201784;28;20064;-68
2022/03/04 10:26:08;;;;;;;48.33;25.92;;;;;;;12.43;34.53;99390.91;5211016;28;20679;-70
2022/03/04 10:28:58;;;;;;;48.17;25.35;;;;;;;10.04;36.36;99396.50;5211903;28;20055;-69
2022/03/04 10:32:16;;;;;;;46.17;25.02;;;;;;;11.70;36.11;99395.97;5207487;28;20061;-67
2022/03/04 10:35:16;;;;;;;45.45;25.55;;;;;;;12.18;33.01;99389.72;5200218;28;20057;-69
2022/03/04 10:38:17;;;;;;;44.15;25.67;;;;;;;10.26;35.11;99392.84;5205309;28;20056;-67
2022/03/04 10:41:21;;;;;;;48.85;26.13;;;;;;;12.36;34.04;99386.34;5206509;28;20178;-67
2022/03/04 10:44:27;;;;;;;47.65;26.75;;;;;;;11.31;34.72;99392.47;5206081;28;20150;-68
2022/03/04 10:47:18;;;;;;;49.40;24.98;;;;;;;12.55;31.13;99396.91;5207816;28;20049;-67
2022/03/04 10:50:08;;;;;;;44.17;24.20;;;;;;;12.11;32.75;99388.63;5205563;28;20496;-67
2022/03/04 10:53:00;;;;;;;49.03;25.20;;;;;;;10.85;34.99;99393.09;5200934;28;20051;-67
2022/03/04 10:55:54;;;;;;;47.80;26.02;;;;;;;11.62;32.55;99379.91;5197748;28;20056;-67
2022/03/04 10:58:50;;;;;;;47.85;25.58;;;;;;;11.32;36.11;99366.75;5217969;28;20064;-69
2022/03/04 11:01:49;;;;;;;44.30;24.65;;;;;;;10.77;34.15;99378.69;5195912;28;20138;-69
2022/03/04 11:04:39;;;;;;;41.83;23.75;;;;;;;10.94;34.17;99350.66;5207923;28;20552;-68
2022/03/04 11:07:30;;;;;;;43.25;23.38;;;;;;;11.82;31.87;99378.06;5204041;28;20518;-68
2022/03/04 11:10:21;;;;;;;44.78;24.25;;;;;;;10.79;34.01;99371.44;5207547;28;20053;-69
2022/03/04 11:13:11;;;;;;;40.95;23.38;;;;;;;11.13;35.54;99371.09;5216623;28;20060;-67
2022/03/04 11:16:07;;;;;;;40.55;22.35;;;;;;;11.54;31.59;99387.72;5201804;28;20108;-67
2022/03/04 11:18:57;;;;;;;42.40;23.23;;;;;;;11.55;32.41;99388.56;5208931;28;20048;-68
2022/03/04 11:21:48;;;;;;;45.38;23.77;;;;;;;10.75;32.45;99377.97;5196211;28;20045;-67
2022/03/04 11:24:39;;;;;;;42.63;23.45;;;;;;;10.38;34.54;99371.59;5198234;28;20147;-67
2022/03/04 11:27:35;;;;;;;44.90;23.10;;;;;;;10.56;35.23;99354.06;5200464;28;20407;-67
2022/03/04 11:30:47;;;;;;;46.53;22.65;;;;;;;10.99;33.75;99367.03;5200094;28;20053;-66
2022/03/04 11:33:43;;;;;;;38.38;21.55;;;;;;;10.66;30.93;99362.91;5199307;28;20062;-69
2022/03/04 11:36:39;;;;;;;39.70;22.25;;;;;;;11.23;34.55;99368.44;5197206;28;20123;-69
2022/03/04 11:39:28;;;;;;;41.08;22.08;;;;;;;11.58;31.96;99362.56;5200242;28;20060;-67
2022/03/04 11:42:18;;;;;;;40.72;22.15;;;;;;;11.50;31.77;99357.13;5195091;28;20142;-68
2022/03/04 11:45:10;;;;;;;39.53;21.77;;;;;;;11.20;32.15;99364.25;5198648;28;20104;-69
2022/03/04 11:48:04;;;;;;;43.22;22.63;;;;;;;11.57;32.52;99355.56;5198657;28;20056;-68
2022/03/04 11:50:57;;;;;;;38.83;21.92;;;;;;;10.71;32.45;99360.66;5201864;28;20083;-69
2022/03/04 11:54:22;;;;;;;40.55;21.42;;;;;;;11.17;32.87;99369.81;5194447;28;20072;-69
2022/03/04 11:57:17;;;;;;;37.47;21.02;;;;;;;11.67;32.80;99361.72;5221599;28;20053;-68
2022/03/04 12:00:11;;;;;;;37.17;20.15;;;;;;;10.92;32.52;99355.25;5199835;28;20103;-68
2022/03/04 12:03:13;;;;;;;38.83;20.48;;;;;;;11.54;29.81;99342.56;5197969;28;20797;-67
2022/03/04 12:06:04;;;;;;;35.08;19.73;;;;;;;11.78;30.54;99347.44;5202223;28;20057;-69
2022/03/04 12:08:58;;;;;;;43.08;21.20;;;;;;;11.62;30.90;99344.50;5200046;28;20068;-66
2022/03/04 12:12:11;;;;;;;39.50;21.15;;;;;;;11.45;31.43;99338.94;5202262;28;20434;-68
2022/03/04 12:15:17;;;;;;;41.13;21.08;;;;;;;9.83;33.90;99340.91;5197755;28;20176;-67
2022/03/04 12:18:31;;;;;;;41.28;20.85;;;;;;;10.80;31.78;99338.63;5203127;28;20123;-66
2022/03/04 12:21:26;;;;;;;38.13;21.40;;;;;;;10.88;31.97;99329.97;5203826;28;20048;-68
2022/03/04 12:24:27;;;;;;;34.58;19.58;;;;;;;10.93;31.89;99334.91;5208778;28;20202;-68
2022/03/04 12:27:41;;;;;;;35.25;19.75;;;;;;;10.65;32.01;99325.91;5203949;28;20053;-68
2022/03/04 12:30:32;;;;;;;35.10;19.25;;;;;;;10.77;31.12;99319.50;5205348;28;21865;-68
2022/03/04 12:33:24;;;;;;;33.47;19.02;;;;;;;10.72;30.02;99311.94;5213203;28;20085;-70
2022/03/04 12:36:17;;;;;;;34.08;18.60;;;;;;;10.25;32.14;99313.47;5210932;28;20677;-67
2022/03/04 12:39:07;;;;;;;38.58;19.80;;;;;;;11.03;29.05;99310.03;5206239;28;20087;-70
2022/03/04 12:41:58;;;;;;;38.42;18.90;;;;;;;10.96;28.96;99308.06;5199627;28;20067;-70
2022/03/04 12:44:49;;;;;;;35.10;19.30;;;;;;;11.03;29.98;99304.72;5196162;28;20135;-72
2022/03/04 12:47:40;;;;;;;28.90;15.85;;;;;;;10.94;28.03;99294.13;5213221;28;20140;-71
2022/03/04 12:50:31;;;;;;;27.48;14.98;;;;;;;10.88;27.56;99294.66;5201827;28;20159;-71
2022/03/04 12:53:30;;;;;;;28.30;14.73;;;;;;;10.63;28.32;99291.56;5187654;28;20124;-71
2022/03/04 12:56:22;;;;;;;28.60;14.95;;;;;;;10.78;28.29;99284.88;5197564;28;20049;-71
2022/03/04 12:59:13;;;;;;;33.38;15.23;;;;;;;10.84;28.27;99283.50;5215841;28;21500;-72
2022/03/04 13:02:04;;;;;;;29.27;15.77;;;;;;;10.31;28.36;99273.22;5203618;28;20045;-71
2022/03/04 13:04:59;;;;;;;28.58;14.68;;;;;;;10.64;28.06;99276.50;5211549;23;20307;-70
2022/03/04 13:07:56;;;;;;;27.02;14.80;;;;;;;10.38;27.74;99274.34;5180484;28;20045;-69
2022/03/04 13:10:47;;;;;;;25.13;13.98;;;;;;;10.87;28.18;99275.25;5182234;28;20057;-71
2022/03/04 13:13:48;;;;;;;29.05;13.93;;;;;;;11.41;27.71;99273.00;5175174;28;20191;-68
2022/03/04 13:16:38;;;;;;;30.67;15.05;;;;;;;11.38;27.51;99273.28;5179993;28;20049;-68